Time;durP1;ratioP1;P1;durP2;ratioP2;P2;SDS_P1;SDS_P2;PMS_P1;PMS_P2;Temp;Humidity;BMP_temperature;BMP_pressure;BME280_temperature;BME280_humidity;BME280_pressure;Samples;Min_cycle;Max_cycle;Signal;HPM_P1;HPM_P2
2023/03/30 00:02:24;;;;;;;25.42;19.70;;;10.20;55.20;;;;;;4995332;28;20401;-64
2023/03/30 00:04:50;;;;;;;25.08;19.25;;;10.10;55.60;;;;;;4995480;28;20080;-62
2023/03/30 00:07:17;;;;;;;21.70;17.02;;;10.00;56.50;;;;;;4995748;28;20022;-62
2023/03/30 00:09:43;;;;;;;25.33;17.80;;;10.00;55.90;;;;;;4995572;28;20022;-64
2023/03/30 00:12:10;;;;;;;20.33;16.45;;;10.00;56.60;;;;;;4995296;28;20026;-64
2023/03/30 00:14:40;;;;;;;21.35;16.73;;;10.00;56.60;;;;;;4995382;28;20097;-62
2023/03/30 00:17:06;;;;;;;24.50;17.73;;;10.00;56.60;;;;;;4995236;28;20033;-62
2023/03/30 00:19:36;;;;;;;23.00;17.15;;;10.00;55.80;;;;;;4995320;28;20038;-64
2023/03/30 00:22:05;;;;;;;18.63;15.45;;;10.00;56.30;;;;;;4995207;28;20034;-64
2023/03/30 00:24:31;;;;;;;18.88;14.35;;;10.00;56.50;;;;;;4995412;28;20022;-63
2023/03/30 00:26:56;;;;;;;17.70;13.98;;;10.00;56.10;;;;;;4995336;28;20022;-63
2023/03/30 00:29:22;;;;;;;22.70;15.82;;;10.00;56.60;;;;;;4994971;28;20022;-62
2023/03/30 00:31:48;;;;;;;20.77;15.50;;;10.00;56.80;;;;;;4994208;28;20101;-63
2023/03/30 00:34:13;;;;;;;21.77;18.20;;;10.10;57.20;;;;;;4994937;28;20027;-64
2023/03/30 00:36:39;;;;;;;24.08;18.77;;;10.00;59.70;;;;;;4995228;28;20379;-64
2023/03/30 00:39:07;;;;;;;21.70;17.25;;;9.90;59.60;;;;;;4994954;28;20022;-61
2023/03/30 00:41:34;;;;;;;21.33;15.52;;;9.80;58.90;;;;;;4994653;28;20500;-62
2023/03/30 00:44:05;;;;;;;21.63;15.27;;;9.80;60.20;;;;;;4994766;28;20023;-64
2023/03/30 00:46:32;;;;;;;18.60;14.00;;;9.80;58.70;;;;;;4994640;28;20019;-63
2023/03/30 00:49:04;;;;;;;20.73;15.93;;;9.80;57.40;;;;;;4994636;28;20062;-64
2023/03/30 00:51:34;;;;;;;19.80;15.88;;;9.70;61.10;;;;;;4994670;28;20034;-62
2023/03/30 00:54:08;;;;;;;19.00;15.05;;;9.40;62.40;;;;;;4994658;28;20018;-61
2023/03/30 00:56:34;;;;;;;16.27;12.70;;;9.20;62.00;;;;;;4995035;28;20109;-63
2023/03/30 00:59:01;;;;;;;19.80;13.43;;;9.20;62.50;;;;;;4994807;28;20077;-62
2023/03/30 01:01:28;;;;;;;17.52;12.30;;;9.30;60.80;;;;;;4993980;28;20031;-64
2023/03/30 01:04:04;;;;;;;16.35;12.10;;;9.30;61.50;;;;;;4994423;28;20025;-63
2023/03/30 01:06:32;;;;;;;15.13;11.55;;;9.30;60.10;;;;;;4994718;28;20076;-63
2023/03/30 01:08:58;;;;;;;14.48;11.40;;;9.30;58.20;;;;;;4994291;28;20149;-62
2023/03/30 01:11:28;;;;;;;13.65;11.20;;;9.20;59.60;;;;;;4994608;28;20039;-62
2023/03/30 01:13:59;;;;;;;12.95;10.32;;;9.20;60.50;;;;;;4994372;28;20030;-64
2023/03/30 01:16:43;;;;;;;14.40;11.65;;;9.10;60.80;;;;;;4994246;28;20029;-61
2023/03/30 01:19:28;;;;;;;15.85;11.32;;;9.00;59.80;;;;;;4994210;28;20019;-62
2023/03/30 01:22:33;;;;;;;14.65;11.00;;;8.90;59.40;;;;;;4994120;28;20030;-61
2023/03/30 01:25:23;;;;;;;12.80;9.90;;;8.60;62.60;;;;;;4994055;28;20026;-62
2023/03/30 01:28:17;;;;;;;12.60;10.13;;;8.30;65.50;;;;;;4994055;28;20018;-61
2023/03/30 01:31:01;;;;;;;11.70;8.57;;;8.10;66.20;;;;;;4993921;28;20050;-64
2023/03/30 01:33:47;;;;;;;;;;;8.00;66.90;;;;;;4994468;28;20276;-64
2023/03/30 01:36:58;;;;;;;10.38;6.93;;;7.90;67.90;;;;;;4993628;28;19906;-61
2023/03/30 01:39:38;;;;;;;9.15;7.03;;;7.80;68.40;;;;;;4993938;28;20058;-64
2023/03/30 01:42:15;;;;;;;7.35;6.35;;;7.80;68.30;;;;;;4993552;28;20030;-64
2023/03/30 01:45:02;;;;;;;8.02;5.90;;;7.80;68.20;;;;;;4993678;28;20030;-64
2023/03/30 01:47:34;;;;;;;8.65;6.25;;;7.90;68.20;;;;;;4993912;28;20027;-63
2023/03/30 01:50:07;;;;;;;7.75;5.55;;;7.90;68.30;;;;;;4993844;28;20077;-63
2023/03/30 01:53:04;;;;;;;6.93;5.22;;;7.90;68.40;;;;;;4993990;28;20385;-63
2023/03/30 01:55:35;;;;;;;6.25;5.00;;;7.80;68.60;;;;;;4993847;28;20480;-61
2023/03/30 01:58:13;;;;;;;6.13;4.97;;;7.70;68.50;;;;;;4993914;28;20050;-63
2023/03/30 02:00:42;;;;;;;5.72;4.70;;;7.70;68.70;;;;;;4993447;28;20477;-62
2023/03/30 02:03:15;;;;;;;7.28;5.47;;;7.80;68.90;;;;;;4993484;28;20058;-61
2023/03/30 02:05:44;;;;;;;6.25;5.07;;;7.90;68.00;;;;;;4993695;28;20077;-64
2023/03/30 02:08:18;;;;;;;5.40;4.05;;;7.90;68.30;;;;;;4993830;28;20031;-62
2023/03/30 02:10:46;;;;;;;5.35;4.20;;;7.90;68.10;;;;;;4993994;28;20408;-63
2023/03/30 02:13:14;;;;;;;5.40;4.20;;;7.90;68.00;;;;;;4993449;28;20026;-63
2023/03/30 02:15:47;;;;;;;3.90;3.50;;;8.00;68.10;;;;;;4993766;28;20026;-63
2023/03/30 02:18:13;;;;;;;3.95;3.55;;;8.00;69.10;;;;;;4993660;28;20105;-62
2023/03/30 02:20:39;;;;;;;5.78;4.38;;;8.00;68.20;;;;;;4993475;28;20433;-62
2023/03/30 02:23:06;;;;;;;5.65;4.05;;;8.00;68.60;;;;;;4993700;28;20035;-62
2023/03/30 02:25:35;;;;;;;8.07;6.28;;;8.00;68.50;;;;;;4993516;28;20023;-63
2023/03/30 02:28:01;;;;;;;7.65;5.90;;;8.00;68.30;;;;;;4993289;28;20031;-61
2023/03/30 02:30:33;;;;;;;8.55;6.57;;;7.90;69.80;;;;;;4993577;28;20022;-63
2023/03/30 02:32:59;;;;;;;9.23;7.25;;;7.80;70.40;;;;;;4993749;28;20048;-64
2023/03/30 02:35:33;;;;;;;6.75;5.40;;;7.60;70.90;;;;;;4993406;28;20524;-62
2023/03/30 02:38:18;;;;;;;7.90;5.90;;;7.50;71.70;;;;;;4993445;28;20042;-64
2023/03/30 02:40:55;;;;;;;8.23;5.90;;;7.40;71.50;;;;;;4993648;28;20026;-62
2023/03/30 02:43:39;;;;;;;6.43;5.05;;;7.40;71.70;;;;;;4993259;28;20027;-62
2023/03/30 02:46:23;;;;;;;7.00;5.45;;;7.50;71.90;;;;;;4993381;28;20023;-63
2023/03/30 02:49:24;;;;;;;5.95;5.25;;;7.60;70.50;;;;;;4993314;28;20073;-61
2023/03/30 02:51:58;;;;;;;5.65;4.20;;;7.60;70.20;;;;;;4970868;28;20031;-64
2023/03/30 02:54:39;;;;;;;6.43;4.85;;;7.70;71.30;;;;;;4995395;28;20069;-63
2023/03/30 02:57:13;;;;;;;8.70;5.90;;;7.70;70.40;;;;;;4996641;28;20023;-62
2023/03/30 02:59:54;;;;;;;6.50;5.40;;;7.70;70.00;;;;;;4996665;28;20057;-64
2023/03/30 03:02:30;;;;;;;8.25;6.43;;;7.70;70.40;;;;;;4996580;28;20057;-64
2023/03/30 03:04:57;;;;;;;6.55;5.03;;;7.80;70.40;;;;;;4996601;28;20031;-64
2023/03/30 03:07:24;;;;;;;6.90;5.25;;;7.70;69.80;;;;;;4996717;28;20106;-61
2023/03/30 03:09:49;;;;;;;6.97;5.57;;;7.80;69.60;;;;;;4996660;28;20389;-63
2023/03/30 03:12:15;;;;;;;8.10;5.90;;;7.70;69.00;;;;;;4996536;28;20076;-62
2023/03/30 03:14:42;;;;;;;7.82;6.30;;;7.70;69.20;;;;;;4996624;28;20050;-61
2023/03/30 03:17:08;;;;;;;8.43;6.05;;;7.70;69.60;;;;;;4996487;28;20026;-62
2023/03/30 03:19:34;;;;;;;13.07;9.25;;;7.70;70.00;;;;;;4996334;28;20014;-64
2023/03/30 03:22:00;;;;;;;8.60;6.30;;;7.70;71.00;;;;;;4996162;28;20038;-63
2023/03/30 03:24:25;;;;;;;8.57;6.80;;;7.50;70.80;;;;;;4996309;28;20018;-64
2023/03/30 03:26:51;;;;;;;9.27;7.18;;;7.30;72.00;;;;;;4996068;28;20050;-62
2023/03/30 03:29:17;;;;;;;10.98;7.40;;;7.10;73.70;;;;;;4996219;28;20040;-62
2023/03/30 03:31:43;;;;;;;9.13;6.70;;;6.90;74.30;;;;;;4996414;28;20026;-64
2023/03/30 03:34:08;;;;;;;7.50;6.10;;;6.80;75.60;;;;;;4996129;28;20033;-64
2023/03/30 03:36:34;;;;;;;8.90;6.20;;;6.70;76.80;;;;;;4996083;28;20038;-62
2023/03/30 03:39:00;;;;;;;8.35;6.45;;;6.60;77.10;;;;;;4996140;28;20022;-62
2023/03/30 03:41:25;;;;;;;6.88;5.15;;;6.60;78.00;;;;;;4995720;28;20514;-64
2023/03/30 03:43:51;;;;;;;7.82;5.97;;;6.50;78.20;;;;;;4995900;28;20030;-61
2023/03/30 03:46:17;;;;;;;7.15;5.13;;;6.60;79.10;;;;;;4996125;28;20023;-62
2023/03/30 03:48:42;;;;;;;7.43;5.47;;;6.60;79.30;;;;;;4995966;28;20022;-61
2023/03/30 03:51:08;;;;;;;8.95;5.47;;;6.70;78.70;;;;;;4996038;28;20023;-63
2023/03/30 03:53:35;;;;;;;10.60;7.03;;;6.70;79.00;;;;;;4995833;28;20545;-61
2023/03/30 03:56:01;;;;;;;11.40;6.55;;;6.60;79.80;;;;;;4995505;28;20033;-61
2023/03/30 03:58:27;;;;;;;8.93;6.78;;;6.60;79.50;;;;;;4995862;28;20030;-62
2023/03/30 04:01:01;;;;;;;7.97;5.97;;;6.60;79.70;;;;;;4995569;28;20023;-62
2023/03/30 04:03:27;;;;;;;6.72;5.32;;;6.60;79.40;;;;;;4995451;28;20077;-60
2023/03/30 04:05:53;;;;;;;12.13;7.88;;;6.70;79.10;;;;;;4995254;28;20035;-62
2023/03/30 04:08:19;;;;;;;8.77;6.45;;;6.80;78.70;;;;;;4995777;28;20413;-63
2023/03/30 04:10:45;;;;;;;11.32;8.48;;;6.70;78.80;;;;;;4995337;28;20489;-62
2023/03/30 04:13:10;;;;;;;8.57;7.05;;;6.60;79.70;;;;;;4995360;28;20054;-62
2023/03/30 04:15:36;;;;;;;11.00;8.35;;;6.50;78.80;;;;;;4995353;28;20030;-62
2023/03/30 04:18:04;;;;;;;16.10;10.50;;;6.50;78.80;;;;;;4995295;28;20034;-63
2023/03/30 04:20:29;;;;;;;11.23;8.55;;;6.60;79.00;;;;;;4993955;28;20396;-63
2023/03/30 04:22:55;;;;;;;17.67;13.30;;;6.50;78.80;;;;;;4995268;28;20035;-62
2023/03/30 04:25:24;;;;;;;47.55;33.47;;;6.60;79.10;;;;;;4994931;28;20058;-63
2023/03/30 04:27:53;;;;;;;48.47;31.75;;;6.40;80.60;;;;;;4995010;28;20026;-63
2023/03/30 04:30:21;;;;;;;37.58;29.50;;;6.30;81.50;;;;;;4994980;28;20033;-62
2023/03/30 04:32:53;;;;;;;53.00;39.33;;;6.30;81.60;;;;;;4994890;28;20026;-62
2023/03/30 04:35:19;;;;;;;37.75;28.38;;;6.40;80.60;;;;;;4994845;28;20033;-63
2023/03/30 04:37:45;;;;;;;36.85;28.40;;;6.40;81.10;;;;;;4995025;28;20076;-64
2023/03/30 04:40:12;;;;;;;33.58;25.20;;;6.50;80.10;;;;;;4994790;28;20018;-62
2023/03/30 04:42:38;;;;;;;27.02;21.60;;;6.60;78.90;;;;;;4994709;28;20034;-62
2023/03/30 04:45:07;;;;;;;22.15;18.77;;;6.60;78.60;;;;;;4994920;28;20025;-61
2023/03/30 04:47:33;;;;;;;19.88;15.20;;;6.60;78.10;;;;;;4994861;28;20022;-63
2023/03/30 04:50:00;;;;;;;18.67;15.18;;;6.60;77.30;;;;;;4994670;28;20026;-63
2023/03/30 04:52:26;;;;;;;21.92;14.55;;;6.60;77.50;;;;;;4994479;28;20434;-62
2023/03/30 04:54:52;;;;;;;16.70;13.45;;;6.60;77.60;;;;;;4994625;28;20031;-61
2023/03/30 04:57:18;;;;;;;18.17;14.43;;;6.60;77.10;;;;;;4994761;28;20037;-61
2023/03/30 04:59:44;;;;;;;15.85;12.40;;;6.50;77.60;;;;;;4994657;28;20075;-61
2023/03/30 05:02:11;;;;;;;12.77;11.07;;;6.50;77.60;;;;;;4994296;28;20104;-62
2023/03/30 05:04:37;;;;;;;13.25;10.48;;;6.60;77.50;;;;;;4994179;28;20646;-61
2023/03/30 05:07:05;;;;;;;11.45;9.68;;;6.70;77.40;;;;;;4993983;28;20030;-63
2023/03/30 05:09:30;;;;;;;14.90;11.05;;;6.80;77.10;;;;;;4993994;28;20077;-63
2023/03/30 05:11:56;;;;;;;12.68;10.20;;;6.90;77.00;;;;;;4994153;28;20023;-62
2023/03/30 05:14:22;;;;;;;22.33;16.55;;;7.00;77.20;;;;;;4994036;28;20034;-61
2023/03/30 05:16:47;;;;;;;15.68;12.55;;;7.00;77.70;;;;;;4990367;28;20018;-63
2023/03/30 05:19:13;;;;;;;14.27;11.32;;;7.00;76.80;;;;;;4983167;28;20482;-62
2023/03/30 05:21:39;;;;;;;15.20;10.40;;;7.00;77.30;;;;;;4982438;28;20035;-62
2023/03/30 05:24:06;;;;;;;63.22;42.13;;;7.00;76.90;;;;;;4983790;28;20075;-62
2023/03/30 05:26:31;;;;;;;65.32;42.75;;;6.90;77.20;;;;;;4984283;28;20037;-62
2023/03/30 05:28:57;;;;;;;58.00;41.00;;;6.90;78.10;;;;;;4982562;28;20377;-65
2023/03/30 05:31:23;;;;;;;48.83;37.45;;;6.80;79.70;;;;;;4984428;28;20027;-62
2023/03/30 05:33:50;;;;;;;54.03;39.30;;;6.90;80.90;;;;;;4983781;28;20095;-63
2023/03/30 05:36:16;;;;;;;52.85;40.60;;;7.00;81.60;;;;;;4982161;28;20023;-62
2023/03/30 05:38:42;;;;;;;50.30;38.22;;;7.00;81.00;;;;;;4984360;28;20015;-63
2023/03/30 05:41:08;;;;;;;45.05;34.78;;;7.10;81.10;;;;;;4983665;28;20054;-62
2023/03/30 05:43:33;;;;;;;37.10;29.42;;;7.20;80.60;;;;;;4978133;28;20112;-61
2023/03/30 05:46:01;;;;;;;29.83;24.10;;;7.50;80.80;;;;;;4975283;28;20019;-62
2023/03/30 05:48:27;;;;;;;23.63;20.30;;;7.80;77.50;;;;;;4975268;28;20425;-63
2023/03/30 05:50:53;;;;;;;16.63;14.50;;;8.10;75.40;;;;;;4979774;28;20026;-63
2023/03/30 05:53:18;;;;;;;15.85;13.45;;;8.20;74.40;;;;;;4984120;28;20085;-63
2023/03/30 05:55:48;;;;;;;14.30;11.50;;;8.30;73.60;;;;;;4981890;28;20053;-62
2023/03/30 05:58:15;;;;;;;15.18;10.95;;;8.40;72.10;;;;;;4982711;28;20484;-63
2023/03/30 06:00:42;;;;;;;12.13;10.05;;;8.50;72.10;;;;;;4984282;28;20027;-61
2023/03/30 06:03:09;;;;;;;11.02;8.82;;;8.70;71.00;;;;;;4981561;28;20494;-62
2023/03/30 06:05:37;;;;;;;11.07;9.07;;;8.80;70.40;;;;;;4983244;28;20026;-64
2023/03/30 06:08:04;;;;;;;13.82;9.93;;;9.00;70.90;;;;;;4982551;28;20524;-63
2023/03/30 06:10:30;;;;;;;11.85;8.57;;;9.30;68.80;;;;;;4982840;28;20026;-62
2023/03/30 06:12:56;;;;;;;12.45;9.43;;;9.90;68.50;;;;;;4975522;28;20022;-62
2023/03/30 06:15:22;;;;;;;10.70;8.43;;;10.00;67.80;;;;;;4979800;28;20042;-61
2023/03/30 06:17:48;;;;;;;10.70;8.82;;;10.10;66.30;;;;;;4990151;28;20030;-63
2023/03/30 06:20:13;;;;;;;11.45;8.60;;;10.30;65.70;;;;;;4987911;28;20105;-62
2023/03/30 06:22:42;;;;;;;8.68;7.22;;;10.40;65.80;;;;;;4992425;28;20177;-67
2023/03/30 06:25:09;;;;;;;11.13;8.02;;;10.40;65.40;;;;;;4997579;28;20101;-64
2023/03/30 06:27:36;;;;;;;9.93;7.80;;;10.30;64.60;;;;;;5009928;28;20022;-62
2023/03/30 06:30:02;;;;;;;9.05;7.68;;;10.30;65.20;;;;;;5007502;28;20137;-64
2023/03/30 06:32:28;;;;;;;11.73;9.63;;;10.30;65.00;;;;;;5001715;28;20031;-62
2023/03/30 06:34:54;;;;;;;11.55;8.73;;;10.20;64.70;;;;;;5001403;28;20026;-62
2023/03/30 06:37:20;;;;;;;10.80;8.55;;;10.10;65.10;;;;;;5002148;28;20022;-61
2023/03/30 06:39:46;;;;;;;10.80;9.13;;;10.20;65.00;;;;;;5000223;28;20383;-64
2023/03/30 06:42:12;;;;;;;11.23;9.38;;;10.40;63.60;;;;;;5008020;28;20393;-64
2023/03/30 06:44:38;;;;;;;15.38;11.60;;;10.50;63.20;;;;;;4990372;28;20076;-64
2023/03/30 06:47:05;;;;;;;11.90;9.77;;;10.80;63.30;;;;;;4989110;28;20120;-64
2023/03/30 06:49:31;;;;;;;14.45;12.30;;;10.90;63.70;;;;;;4997485;28;20381;-67
2023/03/30 06:51:57;;;;;;;18.17;13.18;;;11.10;62.20;;;;;;4989110;28;20026;-65
2023/03/30 06:54:23;;;;;;;18.60;14.32;;;11.20;61.20;;;;;;4990601;28;20465;-65
2023/03/30 06:56:49;;;;;;;14.93;12.40;;;11.30;61.50;;;;;;4988334;28;20022;-66
2023/03/30 06:59:16;;;;;;;12.50;11.00;;;11.30;62.20;;;;;;4988351;28;20101;-62
2023/03/30 07:01:42;;;;;;;11.52;9.95;;;11.30;62.20;;;;;;4992627;28;20064;-64
2023/03/30 07:04:08;;;;;;;11.07;9.10;;;11.40;63.60;;;;;;4996740;28;20505;-65
2023/03/30 07:06:34;;;;;;;10.88;8.93;;;11.40;61.80;;;;;;4983194;28;20029;-63
2023/03/30 07:09:00;;;;;;;13.93;9.45;;;11.60;62.10;;;;;;4982740;28;20049;-62
2023/03/30 07:11:26;;;;;;;14.25;10.70;;;11.90;62.40;;;;;;4979020;28;20022;-61
2023/03/30 07:13:57;;;;;;;12.93;9.40;;;13.20;60.60;;;;;;4983808;28;20031;-62
2023/03/30 07:16:23;;;;;;;12.02;9.88;;;14.50;56.10;;;;;;4979235;28;20358;-62
2023/03/30 07:18:50;;;;;;;11.65;9.20;;;14.20;55.80;;;;;;4971299;28;20470;-62
2023/03/30 07:21:17;;;;;;;9.07;8.00;;;14.20;56.10;;;;;;4970974;28;20054;-64
2023/03/30 07:23:43;;;;;;;9.73;8.18;;;14.30;54.10;;;;;;4972667;28;20109;-64
2023/03/30 07:26:09;;;;;;;8.73;7.82;;;15.30;55.50;;;;;;4974422;28;20034;-65
2023/03/30 07:28:37;;;;;;;9.32;8.38;;;16.20;52.20;;;;;;4973965;28;20043;-65
2023/03/30 07:31:09;;;;;;;9.60;8.45;;;16.50;52.20;;;;;;4975824;28;20034;-64
2023/03/30 07:33:35;;;;;;;8.55;7.68;;;17.30;52.10;;;;;;4976592;28;20030;-66
2023/03/30 07:36:02;;;;;;;9.00;8.10;;;18.90;48.00;;;;;;4988693;28;20027;-61
2023/03/30 07:38:28;;;;;;;9.93;8.93;;;20.20;45.10;;;;;;4995918;28;20026;-63
2023/03/30 07:40:54;;;;;;;13.05;11.85;;;21.40;42.70;;;;;;4992326;28;20495;-62
2023/03/30 07:43:20;;;;;;;16.65;13.52;;;22.50;41.80;;;;;;4991529;28;20038;-62
2023/03/30 07:45:46;;;;;;;13.88;11.80;;;23.20;40.80;;;;;;4989615;28;20030;-65
2023/03/30 07:48:12;;;;;;;14.32;11.77;;;24.00;38.00;;;;;;4976412;28;20409;-62
2023/03/30 07:50:37;;;;;;;11.63;10.43;;;25.00;35.50;;;;;;4995106;28;20491;-62
2023/03/30 07:53:04;;;;;;;11.52;10.32;;;26.10;33.30;;;;;;4993256;28;20026;-61
2023/03/30 07:55:30;;;;;;;15.30;12.20;;;27.30;33.60;;;;;;4982235;28;20026;-63
2023/03/30 07:57:56;;;;;;;11.90;10.60;;;25.90;30.90;;;;;;4973235;28;20019;-64
2023/03/30 08:00:22;;;;;;;11.93;9.75;;;24.40;31.40;;;;;;4982479;28;20049;-66
2023/03/30 08:02:49;;;;;;;10.20;8.60;;;24.10;32.50;;;;;;4989835;28;20420;-67
2023/03/30 08:05:16;;;;;;;9.25;7.57;;;23.60;31.90;;;;;;4990226;28;20062;-64
2023/03/30 08:07:42;;;;;;;8.43;7.15;;;23.30;32.90;;;;;;4990998;28;20025;-65
2023/03/30 08:10:10;;;;;;;7.78;6.70;;;23.50;33.10;;;;;;4991688;28;20026;-63
2023/03/30 08:12:36;;;;;;;9.23;7.20;;;23.40;32.00;;;;;;4991595;28;20081;-64
2023/03/30 08:15:02;;;;;;;6.32;5.72;;;23.00;32.00;;;;;;4992413;28;20026;-63
2023/03/30 08:17:28;;;;;;;6.10;5.50;;;22.40;32.30;;;;;;4990741;28;20060;-63
2023/03/30 08:19:55;;;;;;;6.25;5.45;;;22.20;33.80;;;;;;4992294;28;20054;-63
2023/03/30 08:22:21;;;;;;;5.45;4.93;;;22.60;35.60;;;;;;4992016;28;20046;-65
2023/03/30 08:24:47;;;;;;;5.22;4.43;;;22.80;34.00;;;;;;4991088;28;20023;-64
2023/03/30 08:27:12;;;;;;;4.22;3.60;;;22.80;33.90;;;;;;4991186;28;20026;-64
2023/03/30 08:29:39;;;;;;;4.15;3.80;;;22.60;33.20;;;;;;4991402;28;20069;-62
2023/03/30 08:32:05;;;;;;;4.15;3.75;;;22.20;34.90;;;;;;4991915;28;20034;-65
2023/03/30 08:34:32;;;;;;;4.35;3.33;;;22.00;35.60;;;;;;4993079;28;20022;-65
2023/03/30 08:36:58;;;;;;;5.05;4.00;;;21.90;34.40;;;;;;4993397;28;20033;-64
2023/03/30 08:39:24;;;;;;;4.28;3.60;;;21.80;33.70;;;;;;4989379;28;20030;-62
2023/03/30 08:42:23;;;;;;;4.25;3.50;;;21.80;37.50;;;;;;4990305;28;20030;-61
2023/03/30 08:44:54;;;;;;;4.00;3.65;;;21.70;36.50;;;;;;4992224;28;20046;-62
2023/03/30 08:47:33;;;;;;;4.70;3.50;;;22.40;36.80;;;;;;4990411;28;20130;-62
2023/03/30 08:50:35;;;;;;;5.40;3.60;;;23.30;33.40;;;;;;4974772;28;20140;-61
2023/03/30 08:53:06;;;;;;;4.13;3.83;;;23.10;33.40;;;;;;4983168;28;20409;-63
2023/03/30 08:55:48;;;;;;;4.05;3.25;;;22.60;33.70;;;;;;4983457;28;20511;-62
2023/03/30 08:58:28;;;;;;;6.55;3.53;;;22.30;34.00;;;;;;4969935;28;20034;-63
2023/03/30 09:01:29;;;;;;;4.07;3.30;;;21.80;35.20;;;;;;4972967;28;20034;-63
2023/03/30 09:04:05;;;;;;;4.43;3.45;;;21.00;34.70;;;;;;4977498;28;20066;-63
2023/03/30 09:06:50;;;;;;;3.30;3.00;;;20.60;36.80;;;;;;4990207;28;20034;-64
2023/03/30 09:09:22;;;;;;;3.10;2.85;;;20.60;36.30;;;;;;4988012;28;20019;-61
2023/03/30 09:12:11;;;;;;;3.28;2.97;;;20.70;38.10;;;;;;4991446;28;20034;-63
2023/03/30 09:14:43;;;;;;;5.45;3.40;;;20.70;40.00;;;;;;4970518;28;20361;-61
2023/03/30 09:17:20;;;;;;;3.72;3.22;;;20.50;35.90;;;;;;4974122;28;20027;-62
2023/03/30 09:20:17;;;;;;;3.28;2.92;;;20.40;35.80;;;;;;4991424;28;20113;-62
2023/03/30 09:22:44;;;;;;;4.32;3.92;;;20.60;35.50;;;;;;4990628;28;20460;-63
2023/03/30 09:25:17;;;;;;;4.05;3.65;;;20.70;36.00;;;;;;4984870;28;20026;-61
2023/03/30 09:27:51;;;;;;;;;;;20.90;36.70;;;;;;4978169;28;20080;-62
2023/03/30 09:30:31;;;;;;;3.55;3.20;;;21.10;37.90;;;;;;4993494;28;19909;-61
2023/03/30 09:33:01;;;;;;;5.85;3.75;;;21.60;36.50;;;;;;4992833;28;20034;-62
2023/03/30 09:35:36;;;;;;;3.75;3.30;;;21.90;35.70;;;;;;4991868;28;20056;-61
2023/03/30 09:38:03;;;;;;;3.42;3.10;;;22.30;36.50;;;;;;4988581;28;20097;-64
2023/03/30 09:40:46;;;;;;;3.40;3.00;;;22.50;36.50;;;;;;4972313;28;20109;-61
2023/03/30 09:43:30;;;;;;;;;;;22.50;35.30;;;;;;4974248;28;20365;-61
2023/03/30 09:45:58;;;;;;;4.00;3.33;;;22.70;35.60;;;;;;4988364;28;19916;-60
2023/03/30 09:48:24;;;;;;;3.60;3.17;;;23.00;35.80;;;;;;4988378;28;20062;-62
2023/03/30 09:50:50;;;;;;;6.05;4.05;;;23.20;36.10;;;;;;4987287;28;20125;-61
2023/03/30 09:53:25;;;;;;;6.10;4.10;;;23.50;38.30;;;;;;4989256;28;20038;-59
2023/03/30 09:56:16;;;;;;;4.55;3.65;;;23.50;36.10;;;;;;4988210;28;20050;-61
2023/03/30 09:58:42;;;;;;;3.90;3.38;;;23.60;32.80;;;;;;4984265;28;20033;-63
2023/03/30 10:01:13;;;;;;;3.50;3.20;;;23.50;34.30;;;;;;4980288;28;20027;-60
2023/03/30 10:03:41;;;;;;;4.70;3.55;;;23.80;35.10;;;;;;4984553;28;20046;-61
2023/03/30 10:06:14;;;;;;;3.20;2.90;;;24.10;37.10;;;;;;4994029;28;20283;-61
2023/03/30 10:08:42;;;;;;;3.00;2.70;;;24.50;35.00;;;;;;4994250;28;20477;-62
2023/03/30 10:11:07;;;;;;;4.00;3.33;;;24.90;32.70;;;;;;4988165;28;20061;-60
2023/03/30 10:13:37;;;;;;;3.10;2.80;;;24.70;34.70;;;;;;4987114;28;20124;-61
2023/03/30 10:16:11;;;;;;;3.28;2.88;;;24.60;36.50;;;;;;4990510;28;20033;-60
2023/03/30 10:18:41;;;;;;;3.28;2.75;;;24.70;33.60;;;;;;4996696;28;20018;-61
2023/03/30 10:21:17;;;;;;;6.00;3.30;;;25.20;32.40;;;;;;4995870;28;20022;-62
2023/03/30 10:23:46;;;;;;;2.88;2.33;;;25.30;31.30;;;;;;4995933;28;20034;-60
2023/03/30 10:26:17;;;;;;;2.88;1.95;;;25.20;32.00;;;;;;4983600;28;20161;-60
2023/03/30 10:28:56;;;;;;;3.10;1.92;;;25.50;33.90;;;;;;4992321;28;20056;-61
2023/03/30 10:31:26;;;;;;;1.90;1.50;;;25.70;34.20;;;;;;4990027;28;20034;-60
2023/03/30 10:33:57;;;;;;;1.92;1.65;;;25.90;34.80;;;;;;4991114;28;20049;-62
2023/03/30 10:36:27;;;;;;;1.50;1.17;;;25.70;34.30;;;;;;4992066;28;20118;-61
2023/03/30 10:38:53;;;;;;;1.38;1.27;;;25.80;34.00;;;;;;4988749;28;20049;-61
2023/03/30 10:41:22;;;;;;;2.35;1.60;;;25.90;33.70;;;;;;4989500;28;20393;-61
2023/03/30 10:43:49;;;;;;;2.08;1.50;;;26.00;32.10;;;;;;4985778;28;20023;-62
2023/03/30 10:46:21;;;;;;;1.95;1.48;;;26.10;34.10;;;;;;4988898;28;20034;-61
2023/03/30 10:49:01;;;;;;;1.95;1.40;;;26.10;34.50;;;;;;4988333;28;20393;-61
2023/03/30 10:51:40;;;;;;;3.00;1.23;;;25.50;32.50;;;;;;4984929;28;20082;-62
2023/03/30 10:54:50;;;;;;;1.77;1.35;;;25.50;33.80;;;;;;4987410;28;20030;-62
2023/03/30 10:57:23;;;;;;;1.33;1.17;;;25.60;33.50;;;;;;4942665;28;20620;-61
2023/03/30 11:00:01;;;;;;;1.67;1.20;;;25.80;35.60;;;;;;4960487;28;20136;-61
2023/03/30 11:03:03;;;;;;;1.67;1.00;;;26.20;32.00;;;;;;4982310;28;20521;-61
2023/03/30 11:05:34;;;;;;;1.40;1.10;;;26.40;35.50;;;;;;4982443;28;20042;-60
2023/03/30 11:08:06;;;;;;;1.60;1.40;;;26.60;33.00;;;;;;4995732;28;20030;-62
2023/03/30 11:10:36;;;;;;;1.70;1.30;;;26.70;35.40;;;;;;4983240;28;20102;-61
2023/03/30 11:13:29;;;;;;;1.67;1.20;;;26.70;34.50;;;;;;4993948;28;20077;-60
2023/03/30 11:16:00;;;;;;;8.55;2.38;;;26.50;31.20;;;;;;4991839;28;20047;-62
2023/03/30 11:19:10;;;;;;;2.20;1.77;;;26.60;31.00;;;;;;4986257;28;20042;-60
2023/03/30 11:22:21;;;;;;;1.17;1.08;;;26.80;31.50;;;;;;4999035;28;20615;-61
2023/03/30 11:24:50;;;;;;;1.60;1.45;;;27.50;30.40;;;;;;4974258;28;20084;-62
2023/03/30 11:27:29;;;;;;;2.38;1.55;;;27.50;33.00;;;;;;4983456;28;20504;-61
2023/03/30 11:30:30;;;;;;;2.97;1.70;;;27.00;31.60;;;;;;4982209;28;20093;-61
2023/03/30 11:33:03;;;;;;;3.15;1.55;;;26.60;33.90;;;;;;4979466;28;20023;-61
2023/03/30 11:35:44;;;;;;;2.58;1.42;;;26.20;31.80;;;;;;4978701;28;20369;-60
2023/03/30 11:38:38;;;;;;;2.03;1.30;;;26.60;32.10;;;;;;4980865;28;20025;-61
2023/03/30 11:41:12;;;;;;;1.30;1.00;;;26.90;31.20;;;;;;4983552;28;20026;-60
2023/03/30 11:43:37;;;;;;;1.70;1.23;;;27.40;30.30;;;;;;4982512;28;20081;-62
2023/03/30 11:46:23;;;;;;;1.70;1.10;;;27.20;32.00;;;;;;4982292;28;20521;-61
2023/03/30 11:48:58;;;;;;;1.60;1.10;;;27.00;30.00;;;;;;4983271;28;20018;-60
2023/03/30 11:51:35;;;;;;;2.83;1.10;;;26.80;30.00;;;;;;4985774;28;20022;-60
2023/03/30 11:54:20;;;;;;;1.48;0.93;;;26.60;30.90;;;;;;4984656;28;20054;-61
2023/03/30 11:56:54;;;;;;;1.42;0.90;;;26.40;32.20;;;;;;4984637;28;20027;-60
2023/03/30 11:59:38;;;;;;;1.42;1.33;;;26.50;30.00;;;;;;4985073;28;20023;-62
2023/03/30 12:02:10;;;;;;;2.25;1.10;;;26.30;31.40;;;;;;4983324;28;20577;-61
2023/03/30 12:04:44;;;;;;;1.80;1.23;;;26.10;31.10;;;;;;4984241;28;20027;-60
2023/03/30 12:07:41;;;;;;;1.23;0.90;;;26.00;32.20;;;;;;4985499;28;20030;-61
2023/03/30 12:10:31;;;;;;;1.42;1.10;;;26.10;33.40;;;;;;4977712;28;20035;-60
2023/03/30 12:12:57;;;;;;;2.88;1.10;;;25.80;31.60;;;;;;4984248;28;20023;-62
2023/03/30 12:15:44;;;;;;;1.10;0.90;;;25.60;31.70;;;;;;4985448;28;20034;-61
2023/03/30 12:18:42;;;;;;;1.83;1.10;;;25.60;31.40;;;;;;4984953;28;20519;-61
2023/03/30 12:21:34;;;;;;;1.17;0.80;;;25.60;34.90;;;;;;4993669;28;20384;-61
2023/03/30 12:24:16;;;;;;;1.23;0.82;;;25.40;32.30;;;;;;4993662;28;20489;-62
2023/03/30 12:26:42;;;;;;;0.85;0.80;;;25.30;32.80;;;;;;4992232;28;20033;-62
2023/03/30 12:29:15;;;;;;;1.40;0.95;;;25.30;33.60;;;;;;4993696;28;20501;-61
2023/03/30 12:31:47;;;;;;;;;;;25.40;33.50;;;;;;4993766;28;20037;-62
2023/03/30 12:34:13;;;;;;;1.02;0.82;;;25.20;32.20;;;;;;4993899;28;19913;-61
2023/03/30 12:36:41;;;;;;;1.25;0.80;;;25.10;31.80;;;;;;4992143;28;20027;-62
2023/03/30 12:39:30;;;;;;;1.30;0.80;;;25.20;32.40;;;;;;4992008;28;20027;-62
2023/03/30 12:42:26;;;;;;;4.57;3.33;;;25.50;32.10;;;;;;4993797;28;20034;-61
2023/03/30 12:45:30;;;;;;;2.22;1.50;;;25.60;33.20;;;;;;4992035;28;20404;-62
2023/03/30 12:48:33;;;;;;;2.53;2.05;;;25.80;31.70;;;;;;4992560;28;20541;-61
2023/03/30 12:51:01;;;;;;;1.65;1.00;;;26.00;34.10;;;;;;4994170;28;20054;-62
2023/03/30 12:54:02;;;;;;;2.13;1.13;;;26.10;34.70;;;;;;4993199;28;20030;-62
2023/03/30 12:56:46;;;;;;;2.30;1.23;;;25.90;32.60;;;;;;4994146;28;20511;-61
2023/03/30 12:59:23;;;;;;;1.42;1.10;;;25.80;32.80;;;;;;4994640;28;20417;-60
2023/03/30 13:02:19;;;;;;;1.20;0.98;;;26.20;35.40;;;;;;4994143;28;20112;-60
2023/03/30 13:04:47;;;;;;;1.40;1.00;;;26.50;32.00;;;;;;4994423;28;20034;-59
2023/03/30 13:07:25;;;;;;;1.67;1.27;;;26.50;32.70;;;;;;4994188;28;20029;-61
2023/03/30 13:09:56;;;;;;;1.65;1.10;;;26.70;33.90;;;;;;4994194;28;20473;-60
2023/03/30 13:12:41;;;;;;;1.45;1.00;;;26.90;33.80;;;;;;4994204;28;20034;-59